createdAt,value
2018-08-18T00:00:02.311Z,21.92
2018-08-18T00:01:02.300Z,21.88
2018-08-18T00:02:02.287Z,21.86
2018-08-18T00:03:02.277Z,21.80
2018-08-18T00:04:02.264Z,21.82
2018-08-18T00:05:02.254Z,21.80
2018-08-18T00:06:02.241Z,21.75
2018-08-18T00:07:02.232Z,21.68
2018-08-18T00:08:02.216Z,21.80
2018-08-18T00:09:02.207Z,21.68
2018-08-18T00:10:02.197Z,21.69
2018-08-18T00:11:02.186Z,21.68
2018-08-18T00:12:02.171Z,21.77
2018-08-18T00:13:02.158Z,21.68
2018-08-18T00:14:02.144Z,21.80
2018-08-18T00:15:02.135Z,21.80
2018-08-18T00:16:02.142Z,21.74
2018-08-18T00:17:02.109Z,21.77
2018-08-18T00:18:02.098Z,21.80
2018-08-18T00:19:02.103Z,21.74
2018-08-18T00:20:02.072Z,21.91
2018-08-18T00:21:02.060Z,21.84
2018-08-18T00:22:02.051Z,21.86
2018-08-18T00:24:02.028Z,21.83
2018-08-18T00:25:02.029Z,21.84
2018-08-18T00:26:02.023Z,21.92
2018-08-18T00:27:01.992Z,21.92
2018-08-18T00:28:01.979Z,21.98
2018-08-18T00:29:01.965Z,21.88
2018-08-18T00:30:01.959Z,21.86
2018-08-18T00:31:01.944Z,21.86
2018-08-18T00:32:01.934Z,21.86
2018-08-18T00:33:02.137Z,21.77
2018-08-18T00:34:01.962Z,21.83
2018-08-18T00:36:01.881Z,21.79
2018-08-18T00:37:01.874Z,21.82
2018-08-18T00:38:01.858Z,21.82
2018-08-18T00:39:01.850Z,21.82
2018-08-18T00:40:01.836Z,21.86
2018-08-18T00:41:01.821Z,21.84
2018-08-18T00:42:01.812Z,21.82
2018-08-18T00:43:01.797Z,21.75
2018-08-18T00:44:01.784Z,21.80
2018-08-18T00:45:01.778Z,21.82
2018-08-18T00:46:01.759Z,21.77
2018-08-18T00:47:01.748Z,21.69
2018-08-18T00:48:01.737Z,21.72
2018-08-18T00:49:01.726Z,21.64
2018-08-18T00:50:01.713Z,21.67
2018-08-18T00:51:01.700Z,21.65
2018-08-18T00:52:01.687Z,21.65
2018-08-18T00:53:01.675Z,21.67
2018-08-18T00:54:01.664Z,21.67
2018-08-18T00:55:01.652Z,21.61
2018-08-18T00:56:01.637Z,21.47
2018-08-18T00:57:01.633Z,21.47
2018-08-18T00:58:01.623Z,21.50
2018-08-18T00:59:01.604Z,21.44
2018-08-18T01:00:01.594Z,21.46
2018-08-18T01:01:01.580Z,21.49
2018-08-18T01:02:01.567Z,21.42
2018-08-18T01:03:01.555Z,21.42
2018-08-18T01:04:01.544Z,21.40
2018-08-18T01:05:01.534Z,21.43
2018-08-18T01:06:01.523Z,21.44
2018-08-18T01:07:01.511Z,21.49
2018-08-18T01:08:01.494Z,21.49
2018-08-18T01:09:01.482Z,21.50
2018-08-18T01:10:01.469Z,21.52
2018-08-18T01:11:01.581Z,21.52
2018-08-18T01:12:01.598Z,21.50
2018-08-18T01:13:01.525Z,21.53
2018-08-18T01:14:01.546Z,21.47
2018-08-18T01:15:01.459Z,21.54
2018-08-18T01:16:01.401Z,21.54
2018-08-18T01:17:01.393Z,21.56
2018-08-18T01:18:01.375Z,21.52
2018-08-18T01:19:01.365Z,21.50
2018-08-18T01:20:01.348Z,21.61
2018-08-18T01:21:01.336Z,21.52
2018-08-18T01:22:01.326Z,21.54
2018-08-18T01:23:01.310Z,21.56
2018-08-18T01:24:01.300Z,21.61
2018-08-18T01:25:01.300Z,21.62
2018-08-18T01:26:01.274Z,21.68
2018-08-18T01:27:01.339Z,21.64
2018-08-18T01:28:01.248Z,21.58
2018-08-18T01:29:01.239Z,21.64
2018-08-18T01:30:01.226Z,21.50
2018-08-18T01:31:01.215Z,21.59
2018-08-18T01:32:01.203Z,21.65
2018-08-18T01:33:01.188Z,21.67
2018-08-18T01:34:01.179Z,21.58
2018-08-18T01:35:01.167Z,21.65
2018-08-18T01:36:01.152Z,21.64
2018-08-18T01:37:01.144Z,21.67
2018-08-18T01:38:01.131Z,21.58
2018-08-18T01:39:01.133Z,21.53
2018-08-18T01:40:01.107Z,21.54
2018-08-18T01:41:01.091Z,21.43
2018-08-18T01:42:01.078Z,21.42
2018-08-18T01:43:01.067Z,21.27
2018-08-18T01:44:01.053Z,21.25
2018-08-18T01:45:01.042Z,21.24
2018-08-18T01:46:01.030Z,21.14
2018-08-18T01:47:01.017Z,21.17
2018-08-18T01:48:01.003Z,21.17
2018-08-18T01:49:00.994Z,20.99
2018-08-18T01:50:00.980Z,21.03
2018-08-18T01:51:00.970Z,20.98
2018-08-18T01:52:00.959Z,21.01
2018-08-18T01:53:00.946Z,20.95
2018-08-18T01:54:00.930Z,20.98
2018-08-18T01:55:00.921Z,20.99
2018-08-18T01:56:00.907Z,20.95
2018-08-18T01:57:00.896Z,20.97
2018-08-18T01:58:00.885Z,21.03
2018-08-18T01:59:00.870Z,21.12
2018-08-18T02:00:00.857Z,21.14
2018-08-18T02:01:00.844Z,21.12
2018-08-18T02:02:00.834Z,21.10
2018-08-18T02:03:00.822Z,21.03
2018-08-18T02:04:00.809Z,20.97
2018-08-18T02:05:00.795Z,20.94
2018-08-18T02:06:00.788Z,20.99
2018-08-18T02:07:00.771Z,20.95
2018-08-18T02:08:00.755Z,20.99
2018-08-18T02:09:00.748Z,21.09
2018-08-18T02:10:00.733Z,21.10
2018-08-18T02:11:00.719Z,21.17
2018-08-18T02:12:00.707Z,21.17
2018-08-18T02:13:00.694Z,21.14
2018-08-18T02:14:00.686Z,21.27
2018-08-18T02:15:00.678Z,21.27
2018-08-18T02:16:00.658Z,21.21
2018-08-18T02:17:00.646Z,21.21
2018-08-18T02:18:00.632Z,21.07
2018-08-18T02:19:00.621Z,21.13
2018-08-18T02:20:00.676Z,21.19
2018-08-18T02:21:00.597Z,21.19
2018-08-18T02:22:00.583Z,21.21
2018-08-18T02:23:00.573Z,21.25
2018-08-18T02:24:00.559Z,21.13
2018-08-18T02:25:00.545Z,21.22
2018-08-18T02:26:00.534Z,21.22
2018-08-18T02:27:00.522Z,21.21
2018-08-18T02:28:00.515Z,21.27
2018-08-18T02:29:00.496Z,21.21
2018-08-18T02:30:00.491Z,21.14
2018-08-18T02:31:00.472Z,21.24
2018-08-18T02:32:00.459Z,21.19
2018-08-18T02:33:00.448Z,21.17
2018-08-18T02:34:00.434Z,21.17
2018-08-18T02:35:00.423Z,21.17
2018-08-18T02:36:00.407Z,21.22
2018-08-18T02:37:00.396Z,21.14
2018-08-18T02:38:00.383Z,21.17
2018-08-18T02:39:00.371Z,21.09
2018-08-18T02:40:00.438Z,21.03
2018-08-18T02:41:00.347Z,20.99
2018-08-18T02:42:00.333Z,20.98
2018-08-18T02:43:00.322Z,20.97
2018-08-18T02:44:00.308Z,20.99
2018-08-18T02:45:00.293Z,21.01
2018-08-18T02:46:00.283Z,20.95
2018-08-18T02:47:00.271Z,20.97
2018-08-18T02:48:00.258Z,20.94
2018-08-18T02:49:00.244Z,20.98
2018-08-18T02:50:00.237Z,20.94
2018-08-18T02:51:00.220Z,20.95
2018-08-18T02:52:00.209Z,20.95
2018-08-18T02:53:00.195Z,20.94
2018-08-18T02:54:00.184Z,21.03
2018-08-18T02:55:00.169Z,20.97
2018-08-18T02:56:00.159Z,20.95
2018-08-18T02:57:00.146Z,20.98
2018-08-18T02:58:00.133Z,20.91
2018-08-18T02:59:00.119Z,20.99
2018-08-18T03:00:00.106Z,20.98
2018-08-18T03:01:00.097Z,21.03
2018-08-18T03:02:00.080Z,20.97
2018-08-18T03:03:00.070Z,20.91
2018-08-18T03:04:00.059Z,20.85
2018-08-18T03:05:00.044Z,20.87
2018-08-18T03:06:00.032Z,20.95
2018-08-18T03:07:00.018Z,20.95
2018-08-18T03:08:00.096Z,20.92
2018-08-18T03:08:59.991Z,21.03
2018-08-18T03:09:59.979Z,20.94
2018-08-18T03:10:59.967Z,21.04
2018-08-18T03:11:59.954Z,20.97
2018-08-18T03:12:59.945Z,20.95
2018-08-18T03:13:59.935Z,20.98
2018-08-18T03:14:59.918Z,20.95
2018-08-18T03:15:59.905Z,20.98
2018-08-18T03:16:59.894Z,20.97
2018-08-18T03:17:59.879Z,20.95
2018-08-18T03:18:59.867Z,20.97
2018-08-18T03:19:59.853Z,20.95
2018-08-18T03:20:59.847Z,20.94
2018-08-18T03:21:59.828Z,20.95
2018-08-18T03:22:59.822Z,20.80
2018-08-18T03:23:59.802Z,20.73
2018-08-18T03:24:59.791Z,20.69
2018-08-18T03:25:59.776Z,20.59
2018-08-18T03:26:59.768Z,20.48
2018-08-18T03:27:59.751Z,20.36
2018-08-18T03:28:59.752Z,20.35
2018-08-18T03:29:59.724Z,20.35
2018-08-18T03:30:59.721Z,20.31
2018-08-18T03:31:59.698Z,20.35
2018-08-18T03:32:59.685Z,20.35
2018-08-18T03:33:59.674Z,20.35
2018-08-18T03:34:59.662Z,20.36
2018-08-18T03:35:59.648Z,20.41
2018-08-18T03:36:59.642Z,20.41
2018-08-18T03:37:59.623Z,20.38
2018-08-18T03:38:59.625Z,20.39
2018-08-18T03:39:59.595Z,20.36
2018-08-18T03:40:59.584Z,20.35
2018-08-18T03:41:59.571Z,20.28
2018-08-18T03:42:59.557Z,20.24
2018-08-18T03:43:59.545Z,20.23
2018-08-18T03:44:59.532Z,20.10
2018-08-18T03:45:59.524Z,20.18
2018-08-18T03:46:59.511Z,20.23
2018-08-18T03:47:59.496Z,20.18
2018-08-18T03:48:59.487Z,20.23
2018-08-18T03:49:59.469Z,20.29
2018-08-18T03:50:59.457Z,20.21
2018-08-18T03:51:59.443Z,20.31
2018-08-18T03:52:59.431Z,20.28
2018-08-18T03:53:59.417Z,20.20
2018-08-18T03:54:59.405Z,20.21
2018-08-18T03:55:59.390Z,20.20
2018-08-18T03:56:59.377Z,20.26
2018-08-18T03:57:59.365Z,20.23
2018-08-18T03:58:59.353Z,20.21
2018-08-18T03:59:59.343Z,20.20
2018-08-18T04:00:59.324Z,20.18
2018-08-18T04:01:59.394Z,20.24
2018-08-18T04:02:59.300Z,20.23
2018-08-18T04:03:59.288Z,20.26
2018-08-18T04:04:59.275Z,20.28
2018-08-18T04:05:59.263Z,20.18
2018-08-18T04:06:59.249Z,20.11
2018-08-18T04:07:59.234Z,20.13
2018-08-18T04:08:59.221Z,20.05
2018-08-18T04:09:59.210Z,20.06
2018-08-18T04:10:59.199Z,20.06
2018-08-18T04:11:59.190Z,20.01
2018-08-18T04:12:59.170Z,19.98
2018-08-18T04:13:59.159Z,20.03
2018-08-18T04:14:59.145Z,20.05
2018-08-18T04:15:59.131Z,20.05
2018-08-18T04:16:59.167Z,20.10
2018-08-18T04:17:59.108Z,20.14
2018-08-18T04:18:59.146Z,20.10
2018-08-18T04:19:59.080Z,20.18
2018-08-18T04:20:59.067Z,20.26
2018-08-18T04:21:59.054Z,20.16
2018-08-18T04:22:59.041Z,20.20
2018-08-18T04:23:59.027Z,20.26
2018-08-18T04:24:59.014Z,20.26
2018-08-18T04:25:59.001Z,20.21
2018-08-18T04:26:58.989Z,20.21
2018-08-18T04:27:58.977Z,20.26
2018-08-18T04:28:58.963Z,20.24
2018-08-18T04:29:58.949Z,20.14
2018-08-18T04:30:58.936Z,20.16
2018-08-18T04:31:58.921Z,20.18
2018-08-18T04:32:58.909Z,20.10
2018-08-18T04:33:58.895Z,20.17
2018-08-18T04:34:58.882Z,20.13
2018-08-18T04:35:58.870Z,20.14
2018-08-18T04:36:58.857Z,20.10
2018-08-18T04:37:58.842Z,20.21
2018-08-18T04:38:58.830Z,20.03
2018-08-18T04:39:58.823Z,20.10
2018-08-18T04:40:58.804Z,20.14
2018-08-18T04:41:58.793Z,20.17
2018-08-18T04:42:58.778Z,20.20
2018-08-18T04:43:58.851Z,20.20
2018-08-18T04:44:58.752Z,20.21
2018-08-18T04:45:58.741Z,20.11
2018-08-18T04:46:58.729Z,20.11
2018-08-18T04:47:58.711Z,20.14
2018-08-18T04:48:58.700Z,20.17
2018-08-18T04:49:58.685Z,20.21
2018-08-18T04:50:58.676Z,20.26
2018-08-18T04:51:58.660Z,20.23
2018-08-18T04:52:58.647Z,20.16
2018-08-18T04:53:58.634Z,20.23
2018-08-18T04:54:58.623Z,20.24
2018-08-18T04:55:58.610Z,20.23
2018-08-18T04:56:58.656Z,20.35
2018-08-18T04:57:58.580Z,20.32
2018-08-18T04:58:58.574Z,20.21
2018-08-18T04:59:58.557Z,20.32
2018-08-18T05:00:58.545Z,20.31
2018-08-18T05:01:58.530Z,20.24
2018-08-18T05:02:58.517Z,20.29
2018-08-18T05:03:58.507Z,20.35
2018-08-18T05:04:58.490Z,20.35
2018-08-18T05:05:58.476Z,20.33
2018-08-18T05:06:58.462Z,20.33
2018-08-18T05:07:58.453Z,20.41
2018-08-18T05:08:58.563Z,20.38
2018-08-18T05:09:58.421Z,20.42
2018-08-18T05:10:58.406Z,20.43
2018-08-18T05:11:58.398Z,20.50
2018-08-18T05:12:58.382Z,20.55
2018-08-18T05:13:58.367Z,20.38
2018-08-18T05:14:58.354Z,20.43
2018-08-18T05:15:58.344Z,20.50
2018-08-18T05:16:58.327Z,20.50
2018-08-18T05:17:58.314Z,20.51
2018-08-18T05:18:58.351Z,20.50
2018-08-18T05:19:58.291Z,20.50
2018-08-18T05:20:58.274Z,20.43
2018-08-18T05:21:58.266Z,20.48
2018-08-18T05:22:58.249Z,20.48
2018-08-18T05:23:58.242Z,20.50
2018-08-18T05:24:58.222Z,20.51
2018-08-18T05:25:58.211Z,20.38
2018-08-18T05:26:58.200Z,20.38
2018-08-18T05:27:58.183Z,20.36
2018-08-18T05:28:58.172Z,20.39
2018-08-18T05:29:58.156Z,20.54
2018-08-18T05:30:58.143Z,20.43
2018-08-18T05:31:58.132Z,20.50
2018-08-18T05:32:58.133Z,20.52
2018-08-18T05:33:58.102Z,20.51
2018-08-18T05:34:58.090Z,20.39
2018-08-18T05:35:58.078Z,20.41
2018-08-18T05:36:58.064Z,20.48
2018-08-18T05:37:58.050Z,20.52
2018-08-18T05:38:58.039Z,20.51
2018-08-18T05:39:58.023Z,20.61
2018-08-18T05:40:58.011Z,20.50
2018-08-18T05:41:57.997Z,20.59
2018-08-18T05:42:57.988Z,20.51
2018-08-18T05:43:57.974Z,20.64
2018-08-18T05:44:57.964Z,20.67
2018-08-18T05:45:57.948Z,20.74
2018-08-18T05:46:57.934Z,20.80
2018-08-18T05:47:57.915Z,20.85
2018-08-18T05:48:57.905Z,20.92
2018-08-18T05:49:57.895Z,20.95
2018-08-18T05:50:57.880Z,20.97
2018-08-18T05:51:57.866Z,20.99
2018-08-18T05:52:57.857Z,20.99
2018-08-18T05:53:57.842Z,20.98
2018-08-18T05:54:57.835Z,21.03
2018-08-18T05:55:57.814Z,21.06
2018-08-18T05:56:57.808Z,21.10
2018-08-18T05:57:57.788Z,20.98
2018-08-18T05:58:57.779Z,21.03
2018-08-18T05:59:57.761Z,20.99
2018-08-18T06:00:57.754Z,21.16
2018-08-18T06:01:57.735Z,21.13
2018-08-18T06:02:57.727Z,21.14
2018-08-18T06:03:57.713Z,21.21
2018-08-18T06:04:57.701Z,21.31
2018-08-18T06:05:57.684Z,21.28
2018-08-18T06:06:57.672Z,21.28
2018-08-18T06:07:57.659Z,21.29
2018-08-18T06:08:57.647Z,21.29
2018-08-18T06:09:57.632Z,21.29
2018-08-18T06:10:57.621Z,21.32
2018-08-18T06:11:57.625Z,21.38
2018-08-18T06:12:57.594Z,21.40
2018-08-18T06:13:57.581Z,21.43
2018-08-18T06:14:57.571Z,21.49
2018-08-18T06:15:57.558Z,21.64
2018-08-18T06:16:57.544Z,21.59
2018-08-18T06:17:57.532Z,21.50
2018-08-18T06:18:57.519Z,21.54
2018-08-18T06:19:57.506Z,21.54
2018-08-18T06:20:57.493Z,21.52
2018-08-18T06:21:57.482Z,21.50
2018-08-18T06:22:57.469Z,21.58
2018-08-18T06:23:57.457Z,21.61
2018-08-18T06:24:57.449Z,21.67
2018-08-18T06:25:57.431Z,21.69
2018-08-18T06:26:57.426Z,21.75
2018-08-18T06:27:57.407Z,21.83
2018-08-18T06:28:57.394Z,21.90
2018-08-18T06:29:57.384Z,21.90
2018-08-18T06:30:57.369Z,21.98
2018-08-18T06:31:57.360Z,22.00
2018-08-18T06:32:57.346Z,22.07
2018-08-18T06:33:57.334Z,22.10
2018-08-18T06:34:57.450Z,22.17
2018-08-18T06:35:57.317Z,22.18
2018-08-18T06:36:57.296Z,22.18
2018-08-18T06:37:57.282Z,22.25
2018-08-18T06:38:57.275Z,22.36
2018-08-18T06:39:57.258Z,22.39
2018-08-18T06:40:57.251Z,22.35
2018-08-18T06:41:57.393Z,22.47
2018-08-18T06:42:57.222Z,22.47
2018-08-18T06:43:57.212Z,22.49
2018-08-18T06:44:57.197Z,22.62
2018-08-18T06:45:57.185Z,22.65
2018-08-18T06:46:57.179Z,22.72
2018-08-18T06:47:57.161Z,22.62
2018-08-18T06:48:57.148Z,22.70
2018-08-18T06:49:57.138Z,22.65
2018-08-18T06:50:57.125Z,22.77
2018-08-18T06:51:57.114Z,22.79
2018-08-18T06:52:57.102Z,22.80
2018-08-18T06:53:57.094Z,22.94
2018-08-18T06:54:57.275Z,22.97
2018-08-18T06:55:57.066Z,23.01
2018-08-18T06:56:57.072Z,23.07
2018-08-18T06:57:57.045Z,23.19
2018-08-18T06:58:57.032Z,23.17
2018-08-18T06:59:57.029Z,23.33
2018-08-18T07:00:57.009Z,23.32
2018-08-18T07:01:56.995Z,23.32
2018-08-18T07:02:56.983Z,23.38
2018-08-18T07:03:56.972Z,23.47
2018-08-18T07:04:56.959Z,23.53
2018-08-18T07:05:56.978Z,23.63
2018-08-18T07:06:56.936Z,23.66
2018-08-18T07:07:56.923Z,24.00
2018-08-18T07:08:56.915Z,24.16
2018-08-18T07:09:56.902Z,24.31
2018-08-18T07:10:56.891Z,24.67
2018-08-18T07:11:56.878Z,25.02
2018-08-18T07:12:56.873Z,25.43
2018-08-18T07:13:56.856Z,25.90
2018-08-18T07:14:56.845Z,26.30
2018-08-18T07:15:56.836Z,26.50
2018-08-18T07:16:56.827Z,26.97
2018-08-18T07:17:56.814Z,27.34
2018-08-18T07:18:56.803Z,27.54
2018-08-18T07:19:56.791Z,27.85
2018-08-18T07:20:56.782Z,27.88
2018-08-18T07:21:56.769Z,27.99
2018-08-18T07:22:56.764Z,28.37
2018-08-18T07:23:56.750Z,28.73
2018-08-18T07:24:56.737Z,28.85
2018-08-18T07:25:56.738Z,28.83
2018-08-18T07:26:56.718Z,28.85
2018-08-18T07:27:56.707Z,28.98
2018-08-18T07:28:56.827Z,29.28
2018-08-18T07:29:56.728Z,29.51
2018-08-18T07:30:56.688Z,29.45
2018-08-18T07:31:56.674Z,29.68
2018-08-18T07:32:56.666Z,29.87
2018-08-18T07:33:56.654Z,30.04
2018-08-18T07:34:56.646Z,30.13
2018-08-18T07:35:56.642Z,30.38
2018-08-18T07:36:57.164Z,30.58
2018-08-18T07:37:56.619Z,30.61
2018-08-18T07:38:56.629Z,30.57
2018-08-18T07:39:56.602Z,30.08
2018-08-18T07:40:56.595Z,30.04
2018-08-18T07:41:56.605Z,29.86
2018-08-18T07:42:56.590Z,29.87
2018-08-18T07:43:56.775Z,29.87
2018-08-18T07:44:56.579Z,29.42
2018-08-18T07:46:56.549Z,29.12
2018-08-18T07:47:56.597Z,29.23
2018-08-18T07:48:57.467Z,29.67
2018-08-18T07:50:56.525Z,30.58
2018-08-18T07:51:56.516Z,30.39
2018-08-18T07:52:56.505Z,30.07
2018-08-18T07:53:56.499Z,29.95
2018-08-18T07:54:56.493Z,29.67
2018-08-18T07:55:56.486Z,29.42
2018-08-18T07:56:56.479Z,29.26
2018-08-18T07:57:56.476Z,29.36
2018-08-18T07:58:56.468Z,29.58
2018-08-18T07:59:56.512Z,30.01
2018-08-18T08:00:56.473Z,30.31
2018-08-18T08:01:56.445Z,30.61
2018-08-18T08:02:56.440Z,30.61
2018-08-18T08:03:56.432Z,30.77
2018-08-18T08:04:56.480Z,30.60
2018-08-18T08:05:56.422Z,30.19
2018-08-18T08:06:56.415Z,29.67
2018-08-18T08:07:56.406Z,29.36
2018-08-18T08:08:56.402Z,29.09
2018-08-18T08:09:56.394Z,29.05
2018-08-18T08:10:56.392Z,29.06
2018-08-18T08:11:56.381Z,28.98
2018-08-18T08:12:56.412Z,28.89
2018-08-18T08:13:56.371Z,29.08
2018-08-18T08:14:56.365Z,29.33
2018-08-18T08:15:56.359Z,29.52
2018-08-18T08:16:56.352Z,29.71
2018-08-18T08:17:56.347Z,29.89
2018-08-18T08:18:56.344Z,30.07
2018-08-18T08:19:56.333Z,30.13
2018-08-18T08:20:56.327Z,30.39
2018-08-18T08:21:56.321Z,30.57
2018-08-18T08:22:56.315Z,30.79
2018-08-18T08:23:56.311Z,31.12
2018-08-18T08:24:56.304Z,31.32
2018-08-18T08:25:56.301Z,31.47
2018-08-18T08:26:56.301Z,31.36
2018-08-18T08:27:56.288Z,31.38
2018-08-18T08:28:56.282Z,32.01
2018-08-18T08:29:56.276Z,32.11
2018-08-18T08:30:56.274Z,32.13
2018-08-18T08:31:56.273Z,32.18
2018-08-18T08:32:56.260Z,31.70
2018-08-18T08:33:56.255Z,31.38
2018-08-18T08:35:56.263Z,31.07
2018-08-18T08:36:56.285Z,30.94
2018-08-18T08:37:56.553Z,30.88
2018-08-18T08:38:56.225Z,30.64
2018-08-18T08:39:56.222Z,30.39
2018-08-18T08:40:56.537Z,30.24
2018-08-18T08:41:56.219Z,30.07
2018-08-18T08:42:56.362Z,30.04
2018-08-18T08:43:56.200Z,29.85
2018-08-18T08:44:56.196Z,29.64
2018-08-18T08:45:56.416Z,29.48
2018-08-18T08:46:56.184Z,29.33
2018-08-18T08:48:56.519Z,29.00
2018-08-18T08:49:56.486Z,28.80
2018-08-18T08:54:23.050Z,29.05
2018-08-18T08:55:22.752Z,29.24
2018-08-18T09:04:53.341Z,30.11
2018-08-18T09:09:28.272Z,30.17
2018-08-18T09:10:27.866Z,30.20
2018-08-18T09:11:27.638Z,30.26
2018-08-18T09:12:27.630Z,30.27
2018-08-18T09:13:27.626Z,30.16
2018-08-18T09:14:27.618Z,30.05
2018-08-18T09:15:27.612Z,30.04
2018-08-18T09:16:27.607Z,30.01
2018-08-18T09:17:27.599Z,30.04
2018-08-18T09:18:27.594Z,29.78
2018-08-18T09:19:27.588Z,29.58
2018-08-18T09:20:27.581Z,29.53
2018-08-18T09:21:27.577Z,29.42
2018-08-18T09:22:27.570Z,29.19
2018-08-18T09:23:27.567Z,29.14
2018-08-18T09:24:27.559Z,28.98
2018-08-18T09:25:27.551Z,28.93
2018-08-18T09:26:27.566Z,28.85
2018-08-18T09:27:27.544Z,28.80
2018-08-18T09:28:27.536Z,28.67
2018-08-18T09:29:27.529Z,28.51
2018-08-18T09:30:27.527Z,28.44
2018-08-18T09:31:27.516Z,28.39
2018-08-18T09:32:27.513Z,28.31
2018-08-18T09:33:27.505Z,28.11
2018-08-18T09:34:27.497Z,28.07
2018-08-18T09:35:27.491Z,27.88
2018-08-18T09:36:27.485Z,27.54
2018-08-18T09:37:27.478Z,27.40
2018-08-18T09:38:27.471Z,27.13
2018-08-18T09:39:27.465Z,27.07
2018-08-18T09:40:27.458Z,27.12
2018-08-18T09:41:27.457Z,27.14
2018-08-18T09:42:27.442Z,27.10
2018-08-18T09:43:27.438Z,26.94
2018-08-18T09:44:27.430Z,26.88
2018-08-18T09:45:27.473Z,26.94
2018-08-18T09:46:27.501Z,27.00
2018-08-18T09:47:27.411Z,26.94
2018-08-18T09:48:27.628Z,27.06
2018-08-18T09:49:27.392Z,27.09
2018-08-18T09:50:27.385Z,26.84
2018-08-18T09:51:27.379Z,26.62
2018-08-18T09:52:27.372Z,26.67
2018-08-18T09:53:27.365Z,26.69
2018-08-18T09:54:27.360Z,26.72
2018-08-18T09:55:27.360Z,26.84
2018-08-18T09:56:27.347Z,26.89
2018-08-18T09:57:27.338Z,26.94
2018-08-18T09:58:27.328Z,27.07
2018-08-18T09:59:27.332Z,27.03
2018-08-18T10:00:27.318Z,27.17
2018-08-18T10:01:27.318Z,27.32
2018-08-18T10:02:27.299Z,27.32
2018-08-18T10:03:27.293Z,27.29
2018-08-18T10:04:27.285Z,27.29
2018-08-18T10:05:27.278Z,27.31
2018-08-18T10:06:27.289Z,27.13
2018-08-18T10:07:27.266Z,27.10
2018-08-18T10:08:27.254Z,26.94
2018-08-18T10:09:27.247Z,26.95
2018-08-18T10:10:27.241Z,27.07
2018-08-18T10:11:27.249Z,27.06
2018-08-18T10:12:27.226Z,27.22
2018-08-18T10:13:27.223Z,27.29
2018-08-18T10:14:27.210Z,27.29
2018-08-18T10:15:27.313Z,27.36
2018-08-18T10:16:27.197Z,27.44
2018-08-18T10:17:27.195Z,27.44
2018-08-18T10:18:27.178Z,27.50
2018-08-18T10:19:27.172Z,27.54
2018-08-18T10:20:27.167Z,27.66
2018-08-18T10:21:27.170Z,27.78
2018-08-18T10:22:27.159Z,27.75
2018-08-18T10:23:27.145Z,27.85
2018-08-18T10:24:27.147Z,27.82
2018-08-18T10:25:27.131Z,27.79
2018-08-18T10:26:27.124Z,27.88
2018-08-18T10:27:27.219Z,27.85
2018-08-18T10:28:27.114Z,28.02
2018-08-18T10:29:27.103Z,27.90
2018-08-18T10:30:27.097Z,27.78
2018-08-18T10:31:27.089Z,27.81
2018-08-18T10:32:27.087Z,27.77
2018-08-18T10:33:27.179Z,27.75
2018-08-18T10:34:27.068Z,27.72
2018-08-18T10:35:27.067Z,27.81
2018-08-18T10:36:27.054Z,27.82
2018-08-18T10:37:27.047Z,27.94
2018-08-18T10:38:27.043Z,27.96
2018-08-18T10:39:27.037Z,27.96
2018-08-18T10:40:27.033Z,28.02
2018-08-18T10:41:27.018Z,28.11
2018-08-18T10:42:27.016Z,28.30
2018-08-18T10:43:27.004Z,28.24
2018-08-18T10:44:27.004Z,28.30
2018-08-18T10:45:26.992Z,28.61
2018-08-18T10:46:26.986Z,28.54
2018-08-18T10:47:26.980Z,28.73
2018-08-18T10:48:26.976Z,28.88
2018-08-18T10:49:26.967Z,28.81
2018-08-18T10:50:26.960Z,28.76
2018-08-18T10:51:27.006Z,28.71
2018-08-18T10:52:26.947Z,28.90
2018-08-18T10:53:26.941Z,29.04
2018-08-18T10:54:26.933Z,29.04
2018-08-18T10:55:26.928Z,29.12
2018-08-18T10:56:26.923Z,29.08
2018-08-18T10:57:26.915Z,29.28
2018-08-18T10:58:26.945Z,29.76
2018-08-18T10:59:26.904Z,30.13
2018-08-18T11:00:26.900Z,30.58
2018-08-18T11:01:26.893Z,30.67
2018-08-18T11:02:27.208Z,30.65
2018-08-18T11:03:26.881Z,31.17
2018-08-18T11:04:26.875Z,31.25
2018-08-18T11:05:26.873Z,31.44
2018-08-18T11:06:26.865Z,31.68
2018-08-18T11:07:26.861Z,32.03
2018-08-18T11:08:26.855Z,32.33
2018-08-18T11:09:26.848Z,32.62
2018-08-18T11:10:26.850Z,32.81
2018-08-18T11:11:26.846Z,32.96
2018-08-18T11:12:26.835Z,33.14
2018-08-18T11:13:26.829Z,33.19
2018-08-18T11:14:26.826Z,33.16
2018-08-18T11:15:26.824Z,33.01
2018-08-18T11:16:26.823Z,32.89
2018-08-18T11:17:26.813Z,32.88
2018-08-18T11:18:26.808Z,33.03
2018-08-18T11:19:26.805Z,33.38
2018-08-18T11:20:26.802Z,33.66
2018-08-18T11:21:26.796Z,33.93
2018-08-18T11:22:26.792Z,34.32
2018-08-18T11:23:26.795Z,34.39
2018-08-18T11:24:26.786Z,34.56
2018-08-18T11:25:26.782Z,34.77
2018-08-18T11:26:26.777Z,34.72
2018-08-18T11:27:26.775Z,34.34
2018-08-18T11:28:26.802Z,33.93
2018-08-18T11:29:26.769Z,34.17
2018-08-18T11:30:26.765Z,34.65
2018-08-18T11:31:26.761Z,34.92
2018-08-18T11:32:26.763Z,35.33
2018-08-18T11:33:26.777Z,35.66
2018-08-18T11:34:26.959Z,35.87
2018-08-18T11:35:26.752Z,35.81
2018-08-18T11:36:26.749Z,35.78
2018-08-18T11:37:27.757Z,36.03
2018-08-18T11:38:26.745Z,36.25
2018-08-18T11:39:26.745Z,36.25
2018-08-18T11:40:26.741Z,36.54
2018-08-18T11:41:26.768Z,36.69
2018-08-18T11:42:26.737Z,36.87
2018-08-18T11:43:26.737Z,36.90
2018-08-18T11:44:26.731Z,36.93
2018-08-18T11:45:26.733Z,37.00
2018-08-18T11:46:26.731Z,37.12
2018-08-18T11:47:26.728Z,37.06
2018-08-18T11:48:26.724Z,37.05
2018-08-18T11:49:26.725Z,36.87
2018-08-18T11:50:26.723Z,37.02
2018-08-18T11:51:26.719Z,36.94
2018-08-18T11:52:26.716Z,37.17
2018-08-18T11:53:26.716Z,37.07
2018-08-18T11:54:26.717Z,36.95
2018-08-18T11:55:26.711Z,36.94
2018-08-18T11:56:26.709Z,36.62
2018-08-18T11:57:26.708Z,36.54
2018-08-18T11:58:26.711Z,36.81
2018-08-18T11:59:26.705Z,36.93
2018-08-18T12:00:26.703Z,37.17
2018-08-18T12:01:26.704Z,37.47
2018-08-18T12:02:26.701Z,37.66
2018-08-18T12:03:26.700Z,37.85
2018-08-18T12:04:26.699Z,37.64
2018-08-18T12:05:26.696Z,37.79
2018-08-18T12:06:26.695Z,37.86
2018-08-18T12:07:26.695Z,37.84
2018-08-18T12:08:26.693Z,37.78
2018-08-18T12:09:26.690Z,37.76
2018-08-18T12:10:26.757Z,37.79
2018-08-18T12:11:26.692Z,37.62
2018-08-18T12:12:26.690Z,37.72
2018-08-18T12:13:26.689Z,37.81
2018-08-18T12:14:26.692Z,37.98
2018-08-18T12:15:26.686Z,38.06
2018-08-18T12:16:26.684Z,38.09
2018-08-18T12:17:26.684Z,38.37
2018-08-18T12:18:26.690Z,38.47
2018-08-18T12:19:27.694Z,38.53
2018-08-18T12:20:26.727Z,38.26
2018-08-18T12:21:26.681Z,38.06
2018-08-18T12:22:26.679Z,37.86
2018-08-18T12:23:26.682Z,37.62
2018-08-18T12:24:26.678Z,37.41
2018-08-18T12:25:26.677Z,37.28
2018-08-18T12:26:26.679Z,37.13
2018-08-18T12:27:26.674Z,37.27
2018-08-18T12:28:26.676Z,37.50
2018-08-18T12:29:26.729Z,37.50
2018-08-18T12:30:26.668Z,37.56
2018-08-18T12:31:26.668Z,37.74
2018-08-18T12:32:26.667Z,37.89
2018-08-18T12:33:26.666Z,37.88
2018-08-18T12:34:26.665Z,37.81
2018-08-18T12:35:26.661Z,37.82
2018-08-18T12:36:26.709Z,37.63
2018-08-18T12:37:26.729Z,37.67
2018-08-18T12:38:26.657Z,37.62
2018-08-18T12:39:26.654Z,37.74
2018-08-18T12:40:26.651Z,37.69
2018-08-18T12:41:26.652Z,37.86
2018-08-18T12:42:26.647Z,37.89
2018-08-18T12:43:26.687Z,37.84
2018-08-18T12:44:26.642Z,37.67
2018-08-18T12:45:26.640Z,37.56
2018-08-18T12:46:26.641Z,37.60
2018-08-18T12:47:26.635Z,37.49
2018-08-18T12:48:26.638Z,37.34
2018-08-18T12:49:26.636Z,37.10
2018-08-18T12:50:26.627Z,36.71
2018-08-18T12:51:26.628Z,36.43
2018-08-18T12:52:26.623Z,36.12
2018-08-18T12:53:26.620Z,35.89
2018-08-18T12:54:26.618Z,35.44
2018-08-18T12:55:26.616Z,35.04
2018-08-18T12:56:26.612Z,35.04
2018-08-18T12:57:26.609Z,34.99
2018-08-18T12:58:26.781Z,34.75
2018-08-18T12:59:26.608Z,34.73
2018-08-18T13:00:26.602Z,34.64
2018-08-18T13:01:26.612Z,34.42
2018-08-18T13:02:26.594Z,34.30
2018-08-18T13:03:26.591Z,34.34
2018-08-18T13:04:26.638Z,34.37
2018-08-18T13:05:26.589Z,34.35
2018-08-18T13:06:26.581Z,34.30
2018-08-18T13:07:26.579Z,34.17
2018-08-18T13:08:26.575Z,33.81
2018-08-18T13:09:26.574Z,33.50
2018-08-18T13:10:26.573Z,32.75
2018-08-18T13:11:26.581Z,32.84
2018-08-18T13:12:26.561Z,32.84
2018-08-18T13:13:26.562Z,32.59